Time;durP1;ratioP1;P1;durP2;ratioP2;P2;SDS_P1;SDS_P2;PMS_P1;PMS_P2;Temp;Humidity;BMP_temperature;BMP_pressure;BME280_temperature;BME280_humidity;BME280_pressure;Samples;Min_cycle;Max_cycle;Signal;HPM_P1;HPM_P2
2022/06/27 00:00:17;;;;;;;0.70;0.70;;;22.70;88.40;;;;;;5010392;28;20057;-64
2022/06/27 00:02:43;;;;;;;0.95;0.90;;;22.70;88.40;;;;;;5010721;28;20077;-64
2022/06/27 00:05:10;;;;;;;1.05;0.90;;;22.60;88.30;;;;;;5011130;28;20127;-64
2022/06/27 00:07:37;;;;;;;2.00;0.80;;;22.70;88.40;;;;;;5010793;28;20053;-64
2022/06/27 00:10:04;;;;;;;1.02;1.00;;;22.70;88.40;;;;;;4992589;28;20045;-64
2022/06/27 00:12:30;;;;;;;0.88;0.88;;;22.70;89.10;;;;;;5010596;28;20042;-63
2022/06/27 00:14:56;;;;;;;3.08;1.20;;;22.60;88.40;;;;;;5010148;28;20038;-64
2022/06/27 00:17:21;;;;;;;1.08;0.90;;;22.60;88.40;;;;;;5011057;28;20476;-64
2022/06/27 00:19:47;;;;;;;1.02;0.90;;;22.70;88.50;;;;;;5010567;28;20583;-64
2022/06/27 00:22:13;;;;;;;1.20;1.00;;;22.90;88.60;;;;;;5011278;28;20056;-64
2022/06/27 00:24:38;;;;;;;1.13;0.95;;;22.60;88.40;;;;;;5009509;28;20049;-64
2022/06/27 00:27:04;;;;;;;1.75;1.20;;;22.70;88.50;;;;;;5010971;28;20097;-64
2022/06/27 00:29:30;;;;;;;0.60;0.60;;;22.60;88.50;;;;;;4991995;28;20092;-63
2022/06/27 00:31:56;;;;;;;0.70;0.70;;;22.60;88.50;;;;;;5010841;28;20661;-64
2022/06/27 00:34:22;;;;;;;1.10;1.00;;;22.60;88.50;;;;;;5010800;28;20119;-64
2022/06/27 00:36:47;;;;;;;0.70;0.70;;;22.60;88.50;;;;;;4992843;28;20050;-64
2022/06/27 00:39:13;;;;;;;1.58;1.10;;;22.60;88.50;;;;;;5009706;28;20139;-64
2022/06/27 00:41:39;;;;;;;1.50;1.00;;;22.60;89.10;;;;;;4992579;28;20060;-64
2022/06/27 00:44:05;;;;;;;1.60;1.00;;;22.60;88.50;;;;;;5009914;28;20161;-64
2022/06/27 00:46:30;;;;;;;0.90;0.90;;;22.60;88.50;;;;;;5010418;28;20056;-63
2022/06/27 00:48:57;;;;;;;0.80;0.80;;;22.60;88.60;;;;;;5010732;28;20352;-64
2022/06/27 00:51:24;;;;;;;0.70;0.70;;;22.60;88.50;;;;;;5010685;28;20210;-64
2022/06/27 00:53:54;;;;;;;0.80;0.80;;;22.60;88.60;;;;;;5010292;28;20241;-64
2022/06/27 00:56:21;;;;;;;0.98;0.88;;;22.60;88.60;;;;;;5010080;28;20045;-64
2022/06/27 00:58:47;;;;;;;0.95;0.90;;;22.60;88.60;;;;;;5009742;28;20096;-64
2022/06/27 01:01:13;;;;;;;1.27;0.77;;;22.60;88.60;;;;;;4994483;28;20041;-64
2022/06/27 01:03:39;;;;;;;1.30;1.00;;;22.60;88.60;;;;;;5013928;28;20087;-63
2022/06/27 01:06:05;;;;;;;0.88;0.80;;;22.60;88.60;;;;;;5014273;28;20468;-64
2022/06/27 01:08:31;;;;;;;0.88;0.80;;;22.60;88.60;;;;;;5014176;28;20046;-63
2022/06/27 01:10:57;;;;;;;1.63;1.10;;;22.70;88.60;;;;;;4995590;28;20385;-64
2022/06/27 01:13:23;;;;;;;1.10;0.82;;;22.60;88.60;;;;;;5013732;28;20675;-63
2022/06/27 01:15:49;;;;;;;0.60;0.60;;;22.60;88.60;;;;;;5012943;28;20041;-64
2022/06/27 01:18:15;;;;;;;0.73;0.73;;;22.60;88.60;;;;;;5014253;28;20052;-64
2022/06/27 01:20:42;;;;;;;1.95;1.02;;;22.60;88.70;;;;;;5013538;28;20136;-64
2022/06/27 01:23:08;;;;;;;0.73;0.70;;;22.60;88.60;;;;;;5014182;28;20045;-64
2022/06/27 01:25:37;;;;;;;1.45;0.90;;;22.60;88.60;;;;;;5012582;28;20142;-63
2022/06/27 01:28:04;;;;;;;1.05;0.90;;;22.60;88.70;;;;;;5014068;28;20042;-64
2022/06/27 01:30:31;;;;;;;1.00;0.90;;;22.60;88.70;;;;;;4995414;28;20104;-64
2022/06/27 01:32:56;;;;;;;1.58;0.85;;;22.60;88.70;;;;;;5013504;28;20120;-64
2022/06/27 01:35:23;;;;;;;0.82;0.82;;;22.60;88.70;;;;;;5013600;28;20318;-64
2022/06/27 01:37:49;;;;;;;0.90;0.90;;;22.60;88.70;;;;;;5013354;28;20042;-64
2022/06/27 01:40:15;;;;;;;1.13;1.02;;;22.60;88.70;;;;;;5012628;28;20367;-64
2022/06/27 01:42:42;;;;;;;1.02;0.90;;;22.60;88.70;;;;;;5012954;28;20042;-64
2022/06/27 01:45:08;;;;;;;1.00;0.90;;;22.60;88.70;;;;;;5012751;28;20073;-64
2022/06/27 01:47:34;;;;;;;1.00;0.85;;;22.60;88.70;;;;;;5013470;28;20042;-63
2022/06/27 01:49:59;;;;;;;1.00;1.00;;;22.60;88.80;;;;;;5013133;28;20112;-64
2022/06/27 01:52:28;;;;;;;1.13;0.88;;;22.60;88.70;;;;;;5013610;28;20493;-64
2022/06/27 01:54:54;;;;;;;1.15;0.95;;;22.60;88.70;;;;;;5011899;28;20112;-64
2022/06/27 01:57:22;;;;;;;1.00;0.90;;;22.60;88.80;;;;;;4996137;28;20052;-64
2022/06/27 01:59:50;;;;;;;0.77;0.75;;;22.60;88.80;;;;;;5011657;28;20510;-64
2022/06/27 02:02:17;;;;;;;0.80;0.75;;;22.60;88.80;;;;;;5013282;28;20546;-64
2022/06/27 02:04:44;;;;;;;0.93;0.80;;;22.60;88.80;;;;;;5012672;28;20124;-64
2022/06/27 02:07:11;;;;;;;1.00;0.90;;;22.60;88.80;;;;;;5013311;28;20042;-64
2022/06/27 02:09:37;;;;;;;0.90;0.90;;;22.60;88.80;;;;;;5011774;28;20069;-63
2022/06/27 02:12:19;;;;;;;1.08;0.98;;;22.60;88.80;;;;;;5011397;28;20471;-64
2022/06/27 02:14:54;;;;;;;1.27;0.95;;;22.60;88.80;;;;;;5011738;28;20116;-63
2022/06/27 02:17:21;;;;;;;1.58;1.00;;;22.60;88.80;;;;;;5013050;28;20427;-64
2022/06/27 02:19:47;;;;;;;1.80;0.95;;;22.60;88.80;;;;;;5012390;28;20069;-64
2022/06/27 02:22:13;;;;;;;0.90;0.85;;;22.60;88.80;;;;;;5013098;28;20050;-64
2022/06/27 02:24:40;;;;;;;1.25;1.02;;;22.60;88.90;;;;;;5011576;28;20093;-63
2022/06/27 02:27:07;;;;;;;0.80;0.80;;;22.60;88.90;;;;;;5012860;28;20521;-64
2022/06/27 02:29:33;;;;;;;1.08;0.93;;;22.60;88.80;;;;;;5011821;28;20132;-64
2022/06/27 02:32:00;;;;;;;1.02;0.93;;;22.60;88.80;;;;;;5012174;28;20194;-64
2022/06/27 02:34:27;;;;;;;1.23;0.93;;;22.60;88.90;;;;;;5012384;28;20380;-63
2022/06/27 02:36:55;;;;;;;1.33;0.90;;;22.60;88.90;;;;;;5012162;28;20088;-64
2022/06/27 02:39:23;;;;;;;1.10;1.00;;;22.60;88.90;;;;;;5011522;28;20771;-64
2022/06/27 02:41:53;;;;;;;0.88;0.70;;;22.60;88.90;;;;;;5011872;28;20053;-64
2022/06/27 02:44:21;;;;;;;2.22;0.90;;;22.60;88.90;;;;;;5011832;28;20077;-64
2022/06/27 02:46:48;;;;;;;1.27;1.00;;;22.60;88.90;;;;;;4994423;28;20096;-63
2022/06/27 02:49:14;;;;;;;1.30;0.90;;;22.60;88.90;;;;;;5012326;28;20520;-64
2022/06/27 02:51:56;;;;;;;1.73;1.20;;;22.60;89.00;;;;;;4994889;28;20091;-63
2022/06/27 02:54:34;;;;;;;0.98;0.80;;;22.60;89.00;;;;;;5011404;28;20088;-63
2022/06/27 02:57:07;;;;;;;1.08;0.98;;;22.60;89.00;;;;;;5011743;28;20113;-64
2022/06/27 02:59:35;;;;;;;0.82;0.80;;;22.60;89.00;;;;;;5011406;28;20053;-64
2022/06/27 03:02:02;;;;;;;0.80;0.80;;;22.60;89.00;;;;;;5002645;28;20121;-63
2022/06/27 03:04:27;;;;;;;1.85;1.10;;;22.60;89.00;;;;;;4992354;28;20050;-64
2022/06/27 03:06:53;;;;;;;0.88;0.88;;;22.60;89.00;;;;;;4991843;28;20049;-64
2022/06/27 03:09:19;;;;;;;1.10;0.82;;;22.60;89.00;;;;;;4991625;28;20043;-63
2022/06/27 03:11:48;;;;;;;1.20;1.00;;;22.50;89.00;;;;;;4991530;28;20042;-63
2022/06/27 03:14:14;;;;;;;0.93;0.93;;;22.50;89.00;;;;;;4974273;28;20045;-64
2022/06/27 03:16:40;;;;;;;1.00;0.90;;;22.50;89.00;;;;;;4992239;28;20131;-64
2022/06/27 03:19:06;;;;;;;1.10;1.00;;;22.60;89.10;;;;;;4991728;28;20045;-63
2022/06/27 03:21:32;;;;;;;1.13;1.02;;;22.50;89.00;;;;;;4992376;28;20049;-64
2022/06/27 03:23:58;;;;;;;0.95;0.88;;;22.60;89.10;;;;;;4990916;28;20081;-63
2022/06/27 03:26:23;;;;;;;1.48;1.10;;;22.50;89.00;;;;;;4991638;28;20148;-64
2022/06/27 03:28:49;;;;;;;1.10;0.80;;;22.50;89.00;;;;;;4991156;28;20046;-64
2022/06/27 03:31:15;;;;;;;1.05;0.93;;;22.50;89.10;;;;;;4991525;28;20045;-64
2022/06/27 03:33:41;;;;;;;1.10;1.00;;;22.50;89.10;;;;;;4992106;28;20034;-64
2022/06/27 03:36:07;;;;;;;1.23;1.02;;;22.50;89.00;;;;;;4991372;28;20407;-64
2022/06/27 03:38:33;;;;;;;1.63;1.00;;;22.50;89.10;;;;;;4992001;28;20423;-64
2022/06/27 03:41:00;;;;;;;1.10;1.00;;;22.60;89.10;;;;;;4990187;28;20050;-63
2022/06/27 03:43:26;;;;;;;1.33;0.93;;;22.50;89.10;;;;;;4991126;28;20054;-63
2022/06/27 03:45:51;;;;;;;1.65;1.00;;;22.50;89.10;;;;;;4990698;28;20092;-63
2022/06/27 03:51:02;;;;;;;1.13;1.02;;;22.50;89.10;;;;;;4973863;28;20184;-64
2022/06/27 03:53:28;;;;;;;0.93;0.88;;;22.50;89.10;;;;;;4991563;28;20049;-63
2022/06/27 03:55:53;;;;;;;1.10;1.00;;;22.50;89.10;;;;;;4972611;28;20042;-63
2022/06/27 03:58:19;;;;;;;1.15;1.05;;;22.50;89.10;;;;;;4991089;28;20096;-63
2022/06/27 04:00:45;;;;;;;1.15;0.85;;;22.50;89.10;;;;;;4973367;28;20038;-63
2022/06/27 04:03:11;;;;;;;1.05;0.95;;;22.50;89.10;;;;;;4991545;28;20065;-64
2022/06/27 04:05:36;;;;;;;2.78;1.30;;;22.50;89.10;;;;;;4991322;28;20042;-64
2022/06/27 04:08:02;;;;;;;0.80;0.80;;;22.50;89.10;;;;;;4991059;28;20392;-63
2022/06/27 04:10:28;;;;;;;0.80;0.80;;;22.50;89.20;;;;;;4990353;28;20073;-64
2022/06/27 04:12:54;;;;;;;1.20;1.10;;;22.50;89.20;;;;;;4991103;28;20038;-63
2022/06/27 04:15:20;;;;;;;0.90;0.80;;;22.50;89.20;;;;;;4990353;28;20034;-64
2022/06/27 04:17:45;;;;;;;1.15;1.10;;;22.50;89.20;;;;;;4991299;28;20384;-64
2022/06/27 04:20:11;;;;;;;1.23;1.02;;;22.50;89.20;;;;;;4990801;28;20088;-63
2022/06/27 04:22:37;;;;;;;1.10;1.00;;;22.50;89.20;;;;;;4991392;28;20042;-64
2022/06/27 04:25:03;;;;;;;1.00;0.90;;;22.50;89.20;;;;;;4989776;28;20575;-64
2022/06/27 04:27:29;;;;;;;1.05;0.95;;;22.50;89.20;;;;;;4991382;28;20053;-64
2022/06/27 04:29:56;;;;;;;1.08;0.98;;;22.50;89.20;;;;;;4989919;28;20054;-64
2022/06/27 04:32:23;;;;;;;1.20;1.00;;;22.50;89.20;;;;;;4991222;28;20042;-63
2022/06/27 04:34:49;;;;;;;0.73;0.70;;;22.50;89.20;;;;;;4990950;28;20042;-62
2022/06/27 04:37:16;;;;;;;0.90;0.73;;;22.50;89.20;;;;;;4977622;28;20073;-64
2022/06/27 04:39:42;;;;;;;1.15;1.00;;;22.50;89.20;;;;;;4994173;28;20046;-64
2022/06/27 04:42:08;;;;;;;1.13;0.90;;;22.50;89.30;;;;;;4994265;28;20598;-63
2022/06/27 04:44:36;;;;;;;1.65;1.20;;;22.50;89.20;;;;;;4994318;28;20395;-64
2022/06/27 04:47:02;;;;;;;1.30;0.90;;;22.50;89.20;;;;;;4994496;28;20120;-64
2022/06/27 04:49:28;;;;;;;1.05;0.90;;;22.50;89.20;;;;;;4994950;28;20078;-63
2022/06/27 04:51:54;;;;;;;1.17;1.08;;;22.50;89.20;;;;;;4994511;28;20050;-64
2022/06/27 04:54:21;;;;;;;0.80;0.80;;;22.50;89.30;;;;;;4993974;28;20137;-64
2022/06/27 04:56:48;;;;;;;0.90;0.90;;;22.50;89.20;;;;;;4977415;28;20050;-64
2022/06/27 04:59:15;;;;;;;0.80;0.80;;;22.50;89.30;;;;;;4993655;28;20053;-64
2022/06/27 05:01:41;;;;;;;1.55;0.90;;;22.50;89.30;;;;;;5004971;28;20045;-64
2022/06/27 05:04:07;;;;;;;0.90;0.90;;;22.50;89.30;;;;;;5013731;28;20129;-63
2022/06/27 05:06:33;;;;;;;1.58;1.17;;;22.40;89.20;;;;;;5014182;28;20092;-64
2022/06/27 05:08:58;;;;;;;1.13;0.93;;;22.50;89.30;;;;;;5013346;28;20474;-63
2022/06/27 05:11:24;;;;;;;2.00;1.15;;;22.40;89.30;;;;;;5013579;28;20096;-64
2022/06/27 05:13:50;;;;;;;1.02;0.90;;;22.40;89.20;;;;;;5013743;28;20045;-64
2022/06/27 05:16:16;;;;;;;1.00;0.90;;;22.40;89.30;;;;;;5013437;28;20042;-63
2022/06/27 05:18:42;;;;;;;1.55;1.23;;;22.40;89.30;;;;;;5014309;28;20064;-64
2022/06/27 05:21:09;;;;;;;1.75;1.20;;;22.40;89.20;;;;;;5013440;28;20468;-64
2022/06/27 05:23:37;;;;;;;0.80;0.80;;;22.40;89.20;;;;;;5013979;28;20125;-64
2022/06/27 05:26:04;;;;;;;1.42;1.10;;;22.40;89.20;;;;;;4979343;28;20054;-63
2022/06/27 05:28:30;;;;;;;1.20;1.10;;;22.40;89.30;;;;;;4996156;28;20454;-63
2022/06/27 05:30:56;;;;;;;0.80;0.80;;;22.40;89.20;;;;;;5013043;28;20161;-64
2022/06/27 05:33:25;;;;;;;1.05;0.95;;;22.40;89.20;;;;;;4996354;28;20038;-63
2022/06/27 05:35:51;;;;;;;1.02;1.00;;;22.40;89.30;;;;;;4996178;28;20072;-64
2022/06/27 05:38:17;;;;;;;0.90;0.88;;;22.40;89.20;;;;;;4996036;28;20057;-63
2022/06/27 05:40:45;;;;;;;0.93;0.80;;;22.40;89.20;;;;;;5012688;28;20702;-64
2022/06/27 05:43:13;;;;;;;0.85;0.85;;;22.40;89.20;;;;;;5013226;28;20050;-64
2022/06/27 05:45:39;;;;;;;0.95;0.80;;;22.40;89.20;;;;;;5012597;28;20045;-63
2022/06/27 05:48:06;;;;;;;1.10;1.00;;;22.40;89.30;;;;;;5012945;28;20479;-64
2022/06/27 05:50:32;;;;;;;1.38;0.98;;;22.40;89.20;;;;;;5013467;28;20499;-64
2022/06/27 05:52:59;;;;;;;1.05;1.00;;;22.40;89.30;;;;;;5013103;28;20128;-63
2022/06/27 05:55:25;;;;;;;1.38;1.00;;;22.40;89.20;;;;;;4995076;28;20371;-63
2022/06/27 05:57:53;;;;;;;1.15;0.90;;;22.40;89.20;;;;;;5013522;28;20041;-64
2022/06/27 06:00:19;;;;;;;1.10;1.00;;;22.40;89.30;;;;;;5011868;28;20050;-64
2022/06/27 06:02:46;;;;;;;0.93;0.90;;;22.40;89.30;;;;;;5013247;28;20076;-64
2022/06/27 06:05:14;;;;;;;1.20;1.00;;;22.40;89.20;;;;;;5012530;28;20041;-64
2022/06/27 06:07:42;;;;;;;1.85;0.80;;;22.40;89.30;;;;;;4996084;28;20068;-64
2022/06/27 06:10:09;;;;;;;1.00;0.88;;;22.40;89.30;;;;;;5011497;28;20139;-63
2022/06/27 06:12:35;;;;;;;1.33;0.80;;;22.40;89.30;;;;;;5013134;28;20046;-64
2022/06/27 06:15:05;;;;;;;1.45;1.10;;;22.40;89.30;;;;;;5011623;28;20165;-63
2022/06/27 06:17:34;;;;;;;1.35;1.23;;;22.40;89.30;;;;;;5012952;28;20129;-64
2022/06/27 06:20:03;;;;;;;0.75;0.68;;;22.40;89.30;;;;;;5012430;28;20053;-63
2022/06/27 06:22:29;;;;;;;0.70;0.70;;;22.40;89.30;;;;;;5013162;28;20042;-64
2022/06/27 06:24:55;;;;;;;1.10;1.00;;;22.40;89.30;;;;;;5011895;28;20038;-64
2022/06/27 06:27:21;;;;;;;0.88;0.88;;;22.40;89.30;;;;;;5012093;28;20046;-64
2022/06/27 06:29:47;;;;;;;1.55;0.85;;;22.40;89.30;;;;;;5011834;28;20056;-64
2022/06/27 06:32:13;;;;;;;1.50;1.00;;;22.40;89.40;;;;;;5011763;28;20722;-64
2022/06/27 06:34:40;;;;;;;1.25;0.80;;;22.40;89.40;;;;;;5012147;28;20041;-64
2022/06/27 06:37:06;;;;;;;1.70;1.30;;;22.40;89.30;;;;;;5011896;28;20042;-63
2022/06/27 06:39:32;;;;;;;1.13;0.80;;;22.40;89.30;;;;;;4993878;28;20057;-63
2022/06/27 06:41:58;;;;;;;0.98;0.85;;;22.40;89.30;;;;;;5012010;28;20050;-62
2022/06/27 06:44:24;;;;;;;0.90;0.90;;;22.40;89.30;;;;;;5010940;28;20144;-64
2022/06/27 06:46:51;;;;;;;1.10;1.00;;;22.40;89.40;;;;;;5012271;28;20084;-64
2022/06/27 06:49:17;;;;;;;1.10;1.00;;;22.40;89.30;;;;;;5011756;28;20054;-64
2022/06/27 06:51:43;;;;;;;0.82;0.82;;;22.40;89.40;;;;;;5012522;28;20133;-64
2022/06/27 06:54:12;;;;;;;1.95;1.02;;;22.40;89.40;;;;;;5010980;28;20467;-63
2022/06/27 06:56:39;;;;;;;1.65;1.40;;;22.40;89.30;;;;;;4994682;28;20403;-64
2022/06/27 06:59:05;;;;;;;1.33;1.05;;;22.40;89.40;;;;;;5010467;28;20124;-63
2022/06/27 07:01:33;;;;;;;1.00;0.90;;;22.40;89.40;;;;;;5011984;28;20068;-64
2022/06/27 07:03:59;;;;;;;0.80;0.75;;;22.40;89.30;;;;;;5012080;28;20038;-62
2022/06/27 07:06:26;;;;;;;1.15;0.98;;;22.40;89.40;;;;;;5012244;28;20042;-64
2022/06/27 07:08:53;;;;;;;1.02;0.90;;;22.40;89.40;;;;;;5011979;28;20056;-63
2022/06/27 07:11:23;;;;;;;1.08;0.90;;;22.40;89.40;;;;;;5010685;28;20056;-64
2022/06/27 07:13:53;;;;;;;1.20;0.90;;;22.40;89.40;;;;;;5011457;28;20049;-64
2022/06/27 07:16:20;;;;;;;0.70;0.70;;;22.40;89.40;;;;;;5011100;28;20080;-64
2022/06/27 07:18:46;;;;;;;1.60;0.82;;;22.40;89.40;;;;;;5012063;28;20096;-64
2022/06/27 07:21:15;;;;;;;0.90;0.63;;;22.40;89.40;;;;;;5011384;28;20079;-63
2022/06/27 07:23:40;;;;;;;0.80;0.70;;;22.40;89.40;;;;;;5011645;28;20077;-63
2022/06/27 07:26:06;;;;;;;1.33;0.90;;;22.40;89.40;;;;;;5010602;28;20498;-63
2022/06/27 07:28:32;;;;;;;1.35;0.98;;;22.40;89.40;;;;;;4993986;28;20054;-64
2022/06/27 07:30:59;;;;;;;0.85;0.80;;;22.40;89.40;;;;;;5011408;28;20056;-64
2022/06/27 07:33:25;;;;;;;1.25;0.75;;;22.40;89.40;;;;;;5011156;28;20056;-64
2022/06/27 07:35:51;;;;;;;1.00;0.90;;;22.40;89.50;;;;;;5011449;28;20125;-63
2022/06/27 07:38:16;;;;;;;1.13;0.95;;;22.40;89.40;;;;;;5011116;28;20133;-63
2022/06/27 07:40:42;;;;;;;0.90;0.80;;;22.40;89.50;;;;;;5010526;28;20046;-64
2022/06/27 07:43:13;;;;;;;0.82;0.82;;;22.40;89.40;;;;;;5010793;28;20057;-63
2022/06/27 07:45:40;;;;;;;1.00;0.90;;;22.40;89.50;;;;;;5010638;28;20034;-63
2022/06/27 07:48:06;;;;;;;1.55;0.80;;;22.40;89.50;;;;;;5010926;28;20049;-64
2022/06/27 07:50:42;;;;;;;1.10;0.90;;;22.40;90.00;;;;;;5011359;28;20058;-64
2022/06/27 07:53:13;;;;;;;1.05;0.90;;;22.40;89.50;;;;;;5011020;28;20103;-63
2022/06/27 07:55:40;;;;;;;1.92;1.10;;;22.40;89.50;;;;;;5010331;28;20137;-64
2022/06/27 07:58:07;;;;;;;1.05;0.90;;;22.40;89.50;;;;;;5010839;28;20045;-63
2022/06/27 08:00:34;;;;;;;0.70;0.70;;;22.40;89.50;;;;;;5010185;28;20048;-64
2022/06/27 08:03:36;;;;;;;0.90;0.80;;;22.40;89.50;;;;;;5011659;28;20650;-63
2022/06/27 08:05:47;;;;;;;1.17;0.88;;;22.40;89.50;;;;;;5010675;28;20412;-64
2022/06/27 08:08:12;;;;;;;0.98;0.80;;;22.40;89.50;;;;;;4993392;28;20050;-64
2022/06/27 08:10:38;;;;;;;1.13;0.98;;;22.40;89.50;;;;;;5009923;28;20602;-64
2022/06/27 08:13:06;;;;;;;1.10;0.90;;;22.40;89.80;;;;;;5010875;28;20089;-63
2022/06/27 08:15:32;;;;;;;1.10;1.00;;;22.40;89.50;;;;;;5010005;28;20042;-64
2022/06/27 08:17:58;;;;;;;0.93;0.75;;;22.40;89.50;;;;;;5011145;28;20121;-64
2022/06/27 08:20:23;;;;;;;1.20;1.00;;;22.40;89.50;;;;;;5010206;28;20137;-64
2022/06/27 08:22:51;;;;;;;0.80;0.80;;;22.40;89.50;;;;;;5011453;28;20050;-64
2022/06/27 08:25:17;;;;;;;0.90;0.90;;;22.40;89.50;;;;;;5009539;28;20056;-64
2022/06/27 08:27:44;;;;;;;0.70;0.70;;;22.40;89.50;;;;;;5010994;28;20053;-64
2022/06/27 08:30:11;;;;;;;0.77;0.77;;;22.40;89.50;;;;;;4975967;28;20042;-64
2022/06/27 08:32:37;;;;;;;0.75;0.73;;;22.40;89.50;;;;;;5010871;28;20080;-64
2022/06/27 08:35:03;;;;;;;0.80;0.80;;;22.40;89.50;;;;;;5010809;28;20092;-64
2022/06/27 08:37:29;;;;;;;1.08;0.85;;;22.40;89.50;;;;;;5010201;28;20526;-64
2022/06/27 08:39:55;;;;;;;0.80;0.73;;;22.40;89.50;;;;;;5009811;28;20124;-64
2022/06/27 08:42:21;;;;;;;1.30;1.15;;;22.40;89.50;;;;;;5010276;28;20054;-64
2022/06/27 08:44:46;;;;;;;0.88;0.88;;;22.40;89.50;;;;;;5010001;28;20085;-64
2022/06/27 08:47:14;;;;;;;0.98;0.90;;;22.40;89.50;;;;;;4992658;28;20529;-64
2022/06/27 08:49:41;;;;;;;0.70;0.70;;;22.40;89.50;;;;;;5010774;28;20121;-64
2022/06/27 08:52:07;;;;;;;0.80;0.80;;;22.40;89.50;;;;;;5010489;28;20050;-63
2022/06/27 08:54:32;;;;;;;1.02;0.95;;;22.40;89.50;;;;;;5009751;28;20048;-64
2022/06/27 08:57:01;;;;;;;1.17;0.90;;;22.40;89.50;;;;;;5010601;28;20050;-64
2022/06/27 08:59:28;;;;;;;1.55;0.75;;;22.40;89.50;;;;;;5009416;28;20115;-64
2022/06/27 09:01:54;;;;;;;1.02;0.90;;;22.40;89.50;;;;;;5010529;28;20158;-64
2022/06/27 09:04:20;;;;;;;0.60;0.60;;;22.40;89.50;;;;;;5009913;28;20137;-64
2022/06/27 09:06:46;;;;;;;1.05;0.75;;;22.40;89.50;;;;;;5010738;28;20053;-64
2022/06/27 09:09:15;;;;;;;0.80;0.80;;;22.40;89.50;;;;;;5008980;28;20056;-64
2022/06/27 09:11:49;;;;;;;0.80;0.77;;;22.40;89.50;;;;;;4993165;28;20131;-64
2022/06/27 09:14:35;;;;;;;1.00;0.70;;;22.40;89.50;;;;;;5009207;28;20107;-64
2022/06/27 09:17:04;;;;;;;0.75;0.70;;;22.40;89.50;;;;;;5010426;28;20480;-64
2022/06/27 09:19:51;;;;;;;1.15;1.05;;;22.40;89.50;;;;;;5009926;28;20053;-64
2022/06/27 09:22:19;;;;;;;1.30;0.80;;;22.40;89.50;;;;;;5012059;28;20538;-64
2022/06/27 09:25:04;;;;;;;1.08;0.90;;;22.40;89.50;;;;;;5013081;28;20037;-64
2022/06/27 09:27:46;;;;;;;0.75;0.75;;;22.40;89.50;;;;;;5013521;28;20194;-64
2022/06/27 09:30:18;;;;;;;1.13;1.00;;;22.40;89.50;;;;;;5012588;28;20129;-63
2022/06/27 09:32:44;;;;;;;0.80;0.80;;;22.40;89.50;;;;;;5013492;28;20526;-64
2022/06/27 09:35:25;;;;;;;1.00;0.88;;;22.50;89.50;;;;;;5013413;28;20050;-63
2022/06/27 09:37:58;;;;;;;0.80;0.70;;;22.40;89.50;;;;;;5013911;28;20049;-64
2022/06/27 09:40:26;;;;;;;0.80;0.80;;;22.40;89.50;;;;;;5012079;28;20119;-63
2022/06/27 09:42:54;;;;;;;0.80;0.80;;;22.40;89.50;;;;;;5013542;28;20054;-64
2022/06/27 09:45:23;;;;;;;1.35;0.90;;;22.40;89.50;;;;;;4994928;28;20046;-64
2022/06/27 09:47:58;;;;;;;0.82;0.82;;;22.40;89.50;;;;;;5013654;28;20049;-64
2022/06/27 09:50:27;;;;;;;0.85;0.77;;;22.40;89.50;;;;;;5013019;28;20674;-64
2022/06/27 09:52:55;;;;;;;1.10;1.00;;;22.40;90.00;;;;;;4996369;28;20136;-64
2022/06/27 09:55:23;;;;;;;0.95;0.73;;;22.40;89.50;;;;;;5011837;28;20468;-64
2022/06/27 09:57:51;;;;;;;0.85;0.70;;;22.40;89.50;;;;;;5013534;28;20042;-64
2022/06/27 10:00:20;;;;;;;1.27;0.95;;;22.40;89.60;;;;;;4994726;28;20120;-64
2022/06/27 10:02:47;;;;;;;0.85;0.85;;;22.40;89.50;;;;;;5013017;28;20815;-64
2022/06/27 10:05:17;;;;;;;0.90;0.90;;;22.40;89.60;;;;;;5012953;28;20049;-63
2022/06/27 10:07:55;;;;;;;0.85;0.85;;;22.40;89.60;;;;;;4995996;28;20105;-64
2022/06/27 10:10:21;;;;;;;0.95;0.80;;;22.40;89.60;;;;;;4994080;28;20079;-64
2022/06/27 10:13:02;;;;;;;0.70;0.70;;;22.40;89.60;;;;;;5013201;28;20153;-64
2022/06/27 10:15:33;;;;;;;1.30;0.85;;;22.40;89.60;;;;;;5011755;28;20085;-64
2022/06/27 10:18:02;;;;;;;0.70;0.70;;;22.40;89.60;;;;;;5013103;28;20061;-64
2022/06/27 10:20:39;;;;;;;0.90;0.90;;;22.40;89.60;;;;;;4994085;28;20061;-64
2022/06/27 10:26:38;;;;;;;1.77;0.90;;;22.40;89.60;;;;;;4998412;28;20136;-64
2022/06/27 10:29:26;;;;;;;0.88;0.80;;;22.40;89.60;;;;;;5012457;28;20041;-64
2022/06/27 10:31:52;;;;;;;0.60;0.60;;;22.40;89.60;;;;;;5012602;28;20052;-64
2022/06/27 10:34:18;;;;;;;0.80;0.80;;;22.40;89.50;;;;;;5011083;28;20132;-63
2022/06/27 10:36:43;;;;;;;1.13;0.77;;;22.40;89.60;;;;;;5012693;28;20545;-64
2022/06/27 10:39:19;;;;;;;0.88;0.88;;;22.40;89.60;;;;;;5011531;28;20135;-63
2022/06/27 10:41:45;;;;;;;0.70;0.70;;;22.40;89.60;;;;;;4994914;28;20050;-64
2022/06/27 10:44:31;;;;;;;0.70;0.60;;;22.40;89.60;;;;;;5011955;28;20050;-64
2022/06/27 10:46:57;;;;;;;0.70;0.70;;;22.40;89.60;;;;;;5012242;28;20542;-64
2022/06/27 10:49:23;;;;;;;1.05;0.85;;;22.40;89.60;;;;;;5011858;28;20133;-64
2022/06/27 10:51:51;;;;;;;0.95;0.75;;;22.40;89.60;;;;;;5012473;28;20038;-64
2022/06/27 10:54:16;;;;;;;1.00;0.80;;;22.40;89.60;;;;;;5010548;28;20145;-63
2022/06/27 10:56:42;;;;;;;0.73;0.70;;;22.40;89.60;;;;;;5012245;28;20122;-64
2022/06/27 10:59:14;;;;;;;0.85;0.80;;;22.40;89.60;;;;;;4994189;28;20099;-63
2022/06/27 11:02:03;;;;;;;0.85;0.85;;;22.40;89.60;;;;;;5012141;28;20046;-64
2022/06/27 11:04:28;;;;;;;0.80;0.80;;;22.40;89.60;;;;;;4998578;28;20585;-64
2022/06/27 11:06:56;;;;;;;1.38;1.02;;;22.40;89.60;;;;;;5012372;28;20049;-64
2022/06/27 11:09:38;;;;;;;0.93;0.90;;;22.40;89.60;;;;;;5010561;28;20057;-64
2022/06/27 11:12:06;;;;;;;0.88;0.70;;;22.40;90.10;;;;;;5011996;28;20042;-64
2022/06/27 11:14:53;;;;;;;1.33;1.00;;;22.40;89.60;;;;;;5010706;28;20050;-64
2022/06/27 11:17:39;;;;;;;0.82;0.82;;;22.40;89.70;;;;;;5011326;28;20045;-63
2022/06/27 11:20:09;;;;;;;1.00;0.90;;;22.40;89.60;;;;;;5011920;28;20045;-64
2022/06/27 11:22:36;;;;;;;0.80;0.60;;;22.40;89.60;;;;;;5011515;28;20068;-64
2022/06/27 11:25:02;;;;;;;0.80;0.80;;;22.40;89.60;;;;;;5010776;28;20041;-64
2022/06/27 11:27:44;;;;;;;0.90;0.90;;;22.40;89.60;;;;;;5011338;28;20046;-64
2022/06/27 11:32:54;;;;;;;1.00;0.85;;;22.40;89.60;;;;;;5011886;28;20108;-64
2022/06/27 11:35:20;;;;;;;0.80;0.80;;;22.40;89.60;;;;;;5011061;28;20503;-63
2022/06/27 11:37:46;;;;;;;0.80;0.80;;;22.40;89.60;;;;;;5011773;28;20049;-64
2022/06/27 11:40:12;;;;;;;0.77;0.60;;;22.40;89.60;;;;;;5010467;28;20119;-64
2022/06/27 11:42:41;;;;;;;0.55;0.55;;;22.40;89.60;;;;;;5010961;28;20583;-64
2022/06/27 11:45:13;;;;;;;1.40;1.00;;;22.40;89.70;;;;;;5010364;28;20046;-64
2022/06/27 11:47:42;;;;;;;1.00;0.93;;;22.40;89.60;;;;;;4993710;28;20104;-64
2022/06/27 11:50:13;;;;;;;1.13;0.70;;;22.40;89.60;;;;;;5011411;28;20061;-64
2022/06/27 11:52:42;;;;;;;0.80;0.80;;;22.40;89.60;;;;;;5011037;28;20201;-64
2022/06/27 11:55:17;;;;;;;0.95;0.90;;;22.40;89.60;;;;;;5010024;28;20596;-64
2022/06/27 11:57:54;;;;;;;0.95;0.88;;;22.40;89.70;;;;;;5010938;28;20046;-64
2022/06/27 12:00:28;;;;;;;0.95;0.85;;;22.40;89.70;;;;;;5010149;28;20052;-63
2022/06/27 12:03:13;;;;;;;1.02;0.70;;;22.40;89.70;;;;;;4994204;28;20056;-64
2022/06/27 12:05:39;;;;;;;0.80;0.80;;;22.20;89.60;;;;;;5010931;28;20092;-64
2022/06/27 12:08:11;;;;;;;0.95;0.88;;;22.40;89.60;;;;;;5011342;28;20049;-64
2022/06/27 12:13:38;;;;;;;0.80;0.70;;;22.40;89.60;;;;;;5010204;28;20050;-63
2022/06/27 12:16:06;;;;;;;1.55;0.90;;;22.40;89.60;;;;;;5010517;28;20042;-64
2022/06/27 12:18:43;;;;;;;0.77;0.77;;;22.40;89.60;;;;;;5010717;28;20128;-64
2022/06/27 12:21:10;;;;;;;0.73;0.73;;;22.40;89.60;;;;;;4993713;28;20129;-64
2022/06/27 12:23:36;;;;;;;0.95;0.85;;;22.40;89.60;;;;;;5010294;28;20422;-64
2022/06/27 12:26:01;;;;;;;1.38;0.95;;;22.40;89.60;;;;;;5009981;28;20041;-64
2022/06/27 12:28:27;;;;;;;0.85;0.85;;;22.50;89.70;;;;;;5010190;28;20050;-63
2022/06/27 12:30:53;;;;;;;0.60;0.60;;;22.40;89.60;;;;;;5010367;28;20509;-64
2022/06/27 12:33:19;;;;;;;0.80;0.80;;;22.40;89.70;;;;;;5011108;28;20119;-64
2022/06/27 12:35:45;;;;;;;0.80;0.70;;;22.40;89.70;;;;;;5010283;28;20471;-64
2022/06/27 12:38:11;;;;;;;0.70;0.70;;;22.40;89.70;;;;;;5011104;28;20061;-64
2022/06/27 12:40:37;;;;;;;0.63;0.63;;;22.40;89.60;;;;;;5009099;28;20502;-64
2022/06/27 12:43:06;;;;;;;0.60;0.60;;;22.40;89.70;;;;;;5010964;28;20089;-64
2022/06/27 12:45:33;;;;;;;0.80;0.80;;;22.40;89.60;;;;;;5009281;28;20061;-64
2022/06/27 12:48:02;;;;;;;0.55;0.55;;;22.50;89.70;;;;;;5010888;28;20077;-64
2022/06/27 12:50:28;;;;;;;0.80;0.75;;;22.40;89.60;;;;;;5010249;28;20048;-64
2022/06/27 12:52:54;;;;;;;0.82;0.80;;;22.40;89.60;;;;;;5010535;28;20045;-64
2022/06/27 12:55:19;;;;;;;1.02;0.73;;;22.40;89.60;;;;;;5009799;28;20129;-64
2022/06/27 12:57:45;;;;;;;0.88;0.77;;;22.40;89.60;;;;;;5013224;28;20490;-64
2022/06/27 13:00:11;;;;;;;0.70;0.70;;;22.40;89.70;;;;;;5013700;28;20426;-64
2022/06/27 13:02:37;;;;;;;1.60;0.90;;;22.40;89.60;;;;;;5013910;28;20050;-64